^^
Saratoga-Weather Station Historical Data
Daily Summary for January 6, 2021 Units:  Metric    English   Both
Daily Weekly Monthly Yearly Custom
  High: Low: Average:
Temperature: 20.2 °C 14.9 °C 17.3 °C
Dew Point: 16 °C 13.6 °C 14.9 °C
Humidity: 97% 71% 87%
Wind Speed: 16.3km/h 0km/h 3.1km/h
Wind Gust: 24.1km/h - -
Wind- - WSW
Pressure: 1006.8 hPa 1003.4 hPa -
Precipitation: 5.1 mm    
Historical Graphs
 
 
Tabular Data for January 6, 2021
Time Temperature Dew Point Pressure Wind Wind Speed Wind Gust Humidity Rainfall Rate (Hourly) solar
00:06 15.2 °C 14.6 °C 1005.8 hPa Calm   1.6 km/h 96% 0.0 mm 0 W/m2
00:11 15.2 °C 14.6 °C 1005.8 hPa Calm   1.6 km/h 96% 0.0 mm 0 W/m2
00:16 15.2 °C 14.6 °C 1005.8 hPa Calm   1.6 km/h 96% 0.0 mm 0 W/m2
00:21 15.2 °C 14.6 °C 1005.8 hPa WSW 1.4 km/h 3.2 km/h 96% 0.0 mm 0 W/m2
00:26 15.2 °C 14.6 °C 1005.8 hPa Calm     96% 0.0 mm 0 W/m2
00:31 15.2 °C 14.6 °C 1005.8 hPa Calm   3.2 km/h 96% 0.0 mm 0 W/m2
00:36 15.2 °C 14.6 °C 1005.4 hPa Calm     96% 0.0 mm 0 W/m2
00:41 15.2 °C 14.6 °C 1005.4 hPa Calm     96% 0.0 mm 0 W/m2
00:46 15.2 °C 14.6 °C 1005.4 hPa Calm     96% 0.0 mm 0 W/m2
01:04 15.3 °C 14.8 °C 1005.4 hPa West 4.7 km/h 11.3 km/h 97% 0.2 mm 0 W/m2
01:09 15.5 °C 14.9 °C 1005.1 hPa NNW 4.7 km/h 9.7 km/h 96% 0.5 mm 0 W/m2
01:14 15.6 °C 15 °C 1005.1 hPa NW 3.2 km/h 6.4 km/h 96% 0.5 mm 0 W/m2
01:32 15.6 °C 14.8 °C 1004.7 hPa NE 1.4 km/h 4.8 km/h 95% 0.8 mm 0 W/m2
01:37 15.6 °C 14.8 °C 1004.7 hPa NNE 1.4 km/h 4.8 km/h 95% 0.8 mm 0 W/m2
01:42 15.6 °C 14.8 °C 1004.7 hPa NNE 1.4 km/h 3.2 km/h 95% 0.8 mm 0 W/m2
01:47 15.6 °C 14.8 °C 1004.7 hPa Calm   3.2 km/h 95% 0.8 mm 0 W/m2
01:52 15.6 °C 14.8 °C 1004.7 hPa Calm     95% 0.8 mm 0 W/m2
01:57 15.7 °C 14.9 °C 1004.7 hPa ENE 1.4 km/h 3.2 km/h 95% 1.0 mm 0 W/m2
02:02 15.6 °C 14.8 °C 1004.7 hPa Calm   1.6 km/h 95% 0.8 mm 0 W/m2
02:07 15.7 °C 14.9 °C 1004.7 hPa Calm   3.2 km/h 95% 0.5 mm 0 W/m2
02:12 15.7 °C 14.9 °C 1004.4 hPa Calm   1.6 km/h 95% 0.5 mm 0 W/m2
02:17 15.6 °C 14.8 °C 1004.4 hPa Calm     95% 0.5 mm 0 W/m2
02:22 15.7 °C 14.9 °C 1004.4 hPa Calm     95% 0.5 mm 0 W/m2
02:27 15.7 °C 14.9 °C 1004.4 hPa East 4.7 km/h 4.8 km/h 95% 0.5 mm 0 W/m2
02:44 15.7 °C 14.9 °C 1004.1 hPa Calm   3.2 km/h 95% 0.2 mm 0 W/m2
02:49 15.7 °C 14.9 °C 1004.1 hPa NNE 1.4 km/h 3.2 km/h 95% 0.2 mm 0 W/m2
02:54 15.7 °C 14.9 °C 1004.1 hPa NE 1.4 km/h 3.2 km/h 95% 0.2 mm 0 W/m2
02:59 15.7 °C 14.9 °C 1004.1 hPa NE 1.4 km/h 4.8 km/h 95% 0.0 mm 0 W/m2
03:04 15.7 °C 14.9 °C 1004.1 hPa East 3.2 km/h 6.4 km/h 95% 0.2 mm 0 W/m2
03:09 15.7 °C 14.9 °C 1004.1 hPa Calm   4.8 km/h 95% 0.2 mm 0 W/m2
03:14 15.7 °C 14.9 °C 1004.1 hPa Calm   3.2 km/h 95% 0.2 mm 0 W/m2
03:19 15.7 °C 14.9 °C 1004.1 hPa Calm   3.2 km/h 95% 0.5 mm 0 W/m2
03:24 15.8 °C 15 °C 1003.7 hPa NNW 1.4 km/h 3.2 km/h 95% 0.5 mm 0 W/m2
03:29 15.8 °C 15 °C 1004.1 hPa Calm   3.2 km/h 95% 0.5 mm 0 W/m2
03:34 15.8 °C 15 °C 1003.7 hPa NE 1.4 km/h 4.8 km/h 95% 0.5 mm 0 W/m2
03:39 15.8 °C 15 °C 1003.7 hPa Calm   1.6 km/h 95% 0.5 mm 0 W/m2
03:44 15.8 °C 15 °C 1003.7 hPa ENE 3.2 km/h 6.4 km/h 95% 0.5 mm 0 W/m2
03:49 15.8 °C 15 °C 1003.7 hPa SSE 1.4 km/h 4.8 km/h 95% 0.5 mm 0 W/m2
03:54 15.9 °C 15.1 °C 1003.7 hPa Calm   6.4 km/h 95% 0.5 mm 0 W/m2
03:59 15.9 °C 15.1 °C 1003.7 hPa NE 1.4 km/h 4.8 km/h 95% 0.8 mm 0 W/m2
04:04 16 °C 15.2 °C 1003.7 hPa NE 3.2 km/h 3.2 km/h 95% 0.5 mm 0 W/m2
04:09 16 °C 15.2 °C 1003.7 hPa North 3.2 km/h 4.8 km/h 95% 0.5 mm 0 W/m2
04:14 16 °C 15.2 °C 1003.7 hPa West 3.2 km/h 3.2 km/h 95% 0.8 mm 0 W/m2
04:19 16 °C 15.2 °C 1003.4 hPa North 1.4 km/h 4.8 km/h 95% 1.0 mm 0 W/m2
04:24 16 °C 15.2 °C 1003.7 hPa Calm   4.8 km/h 95% 1.3 mm 0 W/m2
04:29 16.1 °C 15.3 °C 1003.4 hPa Calm   4.8 km/h 95% 1.3 mm 0 W/m2
04:34 16.1 °C 15.3 °C 1003.4 hPa SSE 3.2 km/h 4.8 km/h 95% 1.5 mm 0 W/m2
04:39 16.1 °C 15.3 °C 1003.4 hPa North 3.2 km/h 4.8 km/h 95% 1.5 mm 0 W/m2
04:56 16.2 °C 15.4 °C 1003.4 hPa NE 3.2 km/h 4.8 km/h 95% 1.5 mm 0 W/m2
05:01 16.2 °C 15.4 °C 1003.4 hPa NE 1.4 km/h 3.2 km/h 95% 1.0 mm 0 W/m2
05:06 16.2 °C 15.4 °C 1003.4 hPa WNW 1.4 km/h 3.2 km/h 95% 1.0 mm 0 W/m2
05:11 16.2 °C 15.4 °C 1003.4 hPa WNW 3.2 km/h 6.4 km/h 95% 1.0 mm 0 W/m2
05:16 16.2 °C 15.4 °C 1003.4 hPa SW 1.4 km/h 4.8 km/h 95% 0.5 mm 0 W/m2
05:21 16.2 °C 15.4 °C 1003.4 hPa NW 3.2 km/h 4.8 km/h 95% 0.5 mm 0 W/m2
05:26 16.2 °C 15.4 °C 1003.4 hPa NW 11.1 km/h 12.9 km/h 95% 0.5 mm 0 W/m2
05:31 16.2 °C 15.4 °C 1003.4 hPa NE 1.4 km/h 3.2 km/h 95% 0.2 mm 0 W/m2
05:36 16.2 °C 15.2 °C 1003.4 hPa NNE 3.2 km/h 12.9 km/h 94% 0.2 mm 0 W/m2
05:41 16.2 °C 15.2 °C 1003.4 hPa SW 7.9 km/h 8 km/h 94% 0.2 mm 0 W/m2
05:46 16.2 °C 15.2 °C 1003.4 hPa WNW 1.4 km/h 3.2 km/h 94% 0.5 mm 0 W/m2
05:51 16.2 °C 15.2 °C 1003.4 hPa Calm   1.6 km/h 94% 0.5 mm 0 W/m2
05:56 16.2 °C 15.2 °C 1003.7 hPa NE 1.4 km/h 1.6 km/h 94% 0.5 mm 0 W/m2
06:01 16.2 °C 15.2 °C 1003.7 hPa WSW 1.4 km/h 4.8 km/h 94% 0.5 mm 0 W/m2
06:06 16.2 °C 15.2 °C 1003.7 hPa West 1.4 km/h 9.7 km/h 94% 0.5 mm 0 W/m2
06:11 16.2 °C 15.2 °C 1003.7 hPa NNW 1.4 km/h 4.8 km/h 94% 0.5 mm 0 W/m2
06:16 16.2 °C 15.2 °C 1003.7 hPa West 6.4 km/h 9.7 km/h 94% 0.5 mm 0 W/m2
06:21 16.2 °C 15.2 °C 1003.7 hPa WNW 3.2 km/h 9.7 km/h 94% 0.5 mm 0 W/m2
06:26 16.2 °C 15.2 °C 1003.7 hPa ENE 1.4 km/h 3.2 km/h 94% 0.5 mm 0 W/m2
06:31 16.2 °C 15.2 °C 1003.7 hPa NW 3.2 km/h 8 km/h 94% 0.5 mm 5 W/m2
06:49 16.2 °C 15.2 °C 1004.1 hPa Calm   8 km/h 94% 0.2 mm 5 W/m2
06:54 16.3 °C 15.3 °C 1004.1 hPa NNE 1.4 km/h 3.2 km/h 94% 0.2 mm 12 W/m2
06:59 16.3 °C 15.3 °C 1004.1 hPa Calm   8 km/h 94% 0.2 mm 12 W/m2
07:04 16.3 °C 15.3 °C 1004.1 hPa NNE 3.2 km/h 6.4 km/h 94% 1.0 mm 9 W/m2
07:09 16.2 °C 15.2 °C 1004.1 hPa NNW 3.2 km/h 3.2 km/h 94% 1.5 mm 14 W/m2
07:14 16.2 °C 15.2 °C 1004.1 hPa West 3.2 km/h 9.7 km/h 94% 1.5 mm 12 W/m2
07:19 16.2 °C 15.2 °C 1004.1 hPa NW 1.4 km/h 4.8 km/h 94% 1.5 mm 18 W/m2
07:24 16.2 °C 15.2 °C 1004.1 hPa NW 6.4 km/h 8 km/h 94% 1.5 mm 26 W/m2
07:29 16.2 °C 15.2 °C 1004.1 hPa NNW 3.2 km/h 6.4 km/h 94% 1.5 mm 26 W/m2
07:34 16.2 °C 15.2 °C 1004.1 hPa NNW 4.7 km/h 6.4 km/h 94% 1.5 mm 39 W/m2
07:39 16.2 °C 15.2 °C 1004.1 hPa SW 3.2 km/h 4.8 km/h 94% 1.5 mm 25 W/m2
07:44 16.2 °C 15.2 °C 1004.1 hPa NW 3.2 km/h 12.9 km/h 94% 1.5 mm 70 W/m2
08:00 16.3 °C 15.3 °C 1004.4 hPa West 3.2 km/h 8 km/h 94% 1.0 mm 132 W/m2
08:05 16.4 °C 15.4 °C 1004.4 hPa NNW 1.4 km/h 1.6 km/h 94% 0.2 mm 116 W/m2
08:10 16.6 °C 15.6 °C 1004.4 hPa NW 1.4 km/h 9.7 km/h 94% 0.2 mm 186 W/m2
08:15 16.7 °C 15.6 °C 1004.4 hPa North 1.4 km/h 6.4 km/h 93% 0.0 mm 63 W/m2
08:20 16.7 °C 15.6 °C 1004.4 hPa WSW 3.2 km/h 9.7 km/h 93% 0.0 mm 76 W/m2
08:25 16.7 °C 15.6 °C 1004.4 hPa WNW 9.7 km/h 16.1 km/h 93% 0.0 mm 123 W/m2
08:30 16.7 °C 15.4 °C 1004.7 hPa NW 4.7 km/h 12.9 km/h 92% 0.0 mm 72 W/m2
08:35 16.7 °C 15.4 °C 1004.7 hPa SSE 11.1 km/h 16.1 km/h 92% 0.0 mm 86 W/m2
08:40 16.7 °C 15.4 °C 1004.7 hPa NNW 6.4 km/h 14.5 km/h 92% 0.0 mm 111 W/m2
08:45 16.7 °C 15.4 °C 1004.7 hPa WSW 1.4 km/h 9.7 km/h 92% 0.0 mm 104 W/m2
08:50 16.7 °C 15.4 °C 1004.7 hPa North 1.4 km/h 14.5 km/h 92% 0.0 mm 76 W/m2
08:55 16.7 °C 15.2 °C 1004.7 hPa NW 6.4 km/h 11.3 km/h 91% 0.0 mm 83 W/m2
09:01 16.7 °C 15.2 °C 1004.7 hPa Calm   4.8 km/h 91% 0.0 mm 90 W/m2
09:06 16.7 °C 15.2 °C 1005.1 hPa West 1.4 km/h 8 km/h 91% 0.0 mm 100 W/m2
09:11 16.7 °C 15.2 °C 1005.1 hPa NW 3.2 km/h 4.8 km/h 91% 0.0 mm 192 W/m2
09:16 16.8 °C 15.5 °C 1005.1 hPa WNW 4.7 km/h 9.7 km/h 92% 0.0 mm 436 W/m2
09:21 17.1 °C 15.6 °C 1005.1 hPa WNW 11.1 km/h 14.5 km/h 91% 0.0 mm 466 W/m2
09:26 17.4 °C 15.7 °C 1005.1 hPa WNW 6.4 km/h 8 km/h 90% 0.0 mm 214 W/m2
09:31 17.5 °C 15.8 °C 1005.1 hPa NW 1.4 km/h 4.8 km/h 90% 0.0 mm 223 W/m2
09:36 17.6 °C 15.6 °C 1005.1 hPa WNW 9.7 km/h 9.7 km/h 88% 0.0 mm 137 W/m2
09:41 17.6 °C 15.6 °C 1005.4 hPa WNW 7.9 km/h 8 km/h 88% 0.0 mm 167 W/m2
09:46 17.5 °C 15.5 °C 1005.4 hPa SE 13 km/h 16.1 km/h 88% 0.0 mm 209 W/m2
09:51 17.5 °C 15.5 °C 1005.4 hPa NNW 6.4 km/h 11.3 km/h 88% 0.0 mm 229 W/m2
10:10 17.8 °C 15.6 °C 1005.4 hPa NW 1.4 km/h 8 km/h 87% 0.0 mm 696 W/m2
10:15 17.9 °C 15.5 °C 1005.8 hPa WNW 6.4 km/h 12.9 km/h 86% 0.0 mm 631 W/m2
10:20 18.1 °C 15.5 °C 1005.8 hPa WSW 7.9 km/h 11.3 km/h 85% 0.0 mm 192 W/m2
10:25 18.2 °C 15.5 °C 1005.8 hPa NW 3.2 km/h 6.4 km/h 84% 0.0 mm 691 W/m2
10:30 18.3 °C 15.4 °C 1005.8 hPa West 1.4 km/h 14.5 km/h 83% 0.0 mm 302 W/m2
10:35 18.3 °C 15.2 °C 1005.4 hPa NW 6.4 km/h 12.9 km/h 82% 0.0 mm 332 W/m2
10:40 18.3 °C 15.4 °C 1005.8 hPa West 11.1 km/h 16.1 km/h 83% 0.0 mm 301 W/m2
10:45 18.2 °C 15.1 °C 1005.8 hPa NNW 4.7 km/h 6.4 km/h 82% 0.0 mm 250 W/m2
10:50 18.1 °C 14.8 °C 1005.8 hPa NNW 4.7 km/h 8 km/h 81% 0.0 mm 255 W/m2
10:55 18 °C 14.9 °C 1005.8 hPa North 4.7 km/h 11.3 km/h 82% 0.0 mm 299 W/m2
11:11 18.2 °C 14.9 °C 1005.8 hPa NNW 1.4 km/h 14.5 km/h 81% 0.0 mm 306 W/m2
11:16 18.1 °C 15 °C 1005.8 hPa West 3.2 km/h 9.7 km/h 82% 0.0 mm 429 W/m2
11:21 18.1 °C 14.8 °C 1005.8 hPa ESE 3.2 km/h 12.9 km/h 81% 0.0 mm 452 W/m2
11:26 17.9 °C 14.8 °C 1005.8 hPa NW 1.4 km/h 17.7 km/h 82% 0.0 mm 371 W/m2
11:31 17.8 °C 14.9 °C 1005.8 hPa North 9.7 km/h 9.7 km/h 83% 0.0 mm 220 W/m2
11:36 17.5 °C 14.8 °C 1006.1 hPa West 1.4 km/h 14.5 km/h 84% 0.0 mm 149 W/m2
11:41 17.1 °C 14.7 °C 1006.1 hPa NW 7.9 km/h 19.3 km/h 86% 0.2 mm 251 W/m2
11:46 16.6 °C 14.6 °C 1006.1 hPa NW 6.4 km/h 14.5 km/h 88% 0.2 mm 512 W/m2
11:51 16.7 °C 14.9 °C 1006.1 hPa WSW 3.2 km/h 6.4 km/h 89% 0.2 mm 647 W/m2
11:56 16.8 °C 14.6 °C 1006.1 hPa WNW 7.9 km/h 12.9 km/h 87% 0.2 mm 461 W/m2
12:01 16.9 °C 14.5 °C 1006.1 hPa NNW 1.4 km/h 11.3 km/h 86% 0.2 mm 455 W/m2
12:06 17.1 °C 14.7 °C 1006.1 hPa WNW 6.4 km/h 14.5 km/h 86% 0.2 mm 489 W/m2
12:11 17.2 °C 14.8 °C 1006.1 hPa Calm   14.5 km/h 86% 0.2 mm 281 W/m2
12:16 17.3 °C 14.9 °C 1006.4 hPa NNW 4.7 km/h 16.1 km/h 86% 0.2 mm 220 W/m2
12:21 17.2 °C 14.8 °C 1006.4 hPa WNW 3.2 km/h 9.7 km/h 86% 0.2 mm 213 W/m2
12:26 17.1 °C 14.7 °C 1006.4 hPa ESE 3.2 km/h 11.3 km/h 86% 0.2 mm 195 W/m2
12:31 17.1 °C 14.7 °C 1006.4 hPa NNW 6.4 km/h 14.5 km/h 86% 0.2 mm 253 W/m2
12:37 17.1 °C 14.9 °C 1006.4 hPa NNW 1.4 km/h 11.3 km/h 87% 0.2 mm 269 W/m2
12:42 17.2 °C 15 °C 1006.4 hPa NNW 3.2 km/h 14.5 km/h 87% 0.0 mm 366 W/m2
12:47 17.4 °C 15.2 °C 1006.4 hPa WNW 4.7 km/h 11.3 km/h 87% 0.0 mm 381 W/m2
12:52 17.7 °C 15.3 °C 1006.4 hPa NNW 3.2 km/h 8 km/h 86% 0.0 mm 265 W/m2
12:57 17.8 °C 15.1 °C 1006.4 hPa West 6.4 km/h 16.1 km/h 84% 0.0 mm 318 W/m2
13:02 17.8 °C 15.1 °C 1006.4 hPa NNW 9.7 km/h 9.7 km/h 84% 0.0 mm 362 W/m2
13:22 18.7 °C 15.4 °C 1006.1 hPa NW 6.4 km/h 9.7 km/h 81% 0.0 mm 1102 W/m2
13:27 19 °C 15.3 °C 1006.1 hPa West 9.7 km/h 16.1 km/h 79% 0.0 mm 1255 W/m2
13:32 19.3 °C 16 °C 1006.4 hPa WNW 6.4 km/h 16.1 km/h 81% 0.0 mm 939 W/m2
13:37 19.3 °C 15.6 °C 1006.4 hPa West 11.1 km/h 16.1 km/h 79% 0.0 mm 496 W/m2
13:42 19.2 °C 15.5 °C 1006.4 hPa NW 7.9 km/h 17.7 km/h 79% 0.0 mm 246 W/m2
13:47 18.9 °C 15.2 °C 1006.4 hPa SW 7.9 km/h 16.1 km/h 79% 0.0 mm 200 W/m2
14:05 18.3 °C 15 °C 1006.4 hPa WSW 11.1 km/h 19.3 km/h 81% 0.0 mm 385 W/m2
14:10 18.3 °C 15 °C 1006.4 hPa WNW 4.7 km/h 14.5 km/h 81% 0.0 mm 504 W/m2
14:15 18.6 °C 15.3 °C 1006.1 hPa NW 13 km/h 16.1 km/h 81% 0.0 mm 376 W/m2
14:20 18.8 °C 15.3 °C 1006.1 hPa West 1.4 km/h 17.7 km/h 80% 0.0 mm 1002 W/m2
14:25 19.3 °C 15.4 °C 1006.1 hPa WNW 4.7 km/h 24.1 km/h 78% 0.0 mm 292 W/m2
14:30 19.3 °C 15.2 °C 1006.1 hPa WNW 6.4 km/h 16.1 km/h 77% 0.0 mm 306 W/m2
14:35 19.3 °C 15.4 °C 1006.4 hPa SW 9.7 km/h 24.1 km/h 78% 0.0 mm 399 W/m2
14:40 19.4 °C 15.3 °C 1006.1 hPa NW 7.9 km/h 14.5 km/h 77% 0.0 mm 288 W/m2
14:45 19.3 °C 15.2 °C 1006.1 hPa West 4.7 km/h 16.1 km/h 77% 0.0 mm 323 W/m2
14:50 19.4 °C 15.5 °C 1006.1 hPa NNW 9.7 km/h 9.7 km/h 78% 0.0 mm 339 W/m2
14:55 19.7 °C 15.6 °C 1006.1 hPa NNE 9.7 km/h 9.7 km/h 77% 0.0 mm 912 W/m2
15:00 20.1 °C 15.9 °C 1006.1 hPa North 3.2 km/h 11.3 km/h 77% 0.0 mm 1046 W/m2
15:05 20.2 °C 15.2 °C 1006.1 hPa West 4.7 km/h 14.5 km/h 73% 0.0 mm 267 W/m2
15:10 20 °C 14.8 °C 1006.1 hPa WNW 6.4 km/h 9.7 km/h 72% 0.0 mm 137 W/m2
15:15 19.8 °C 14.8 °C 1006.1 hPa NE 1.4 km/h 11.3 km/h 73% 0.0 mm 165 W/m2
15:20 19.6 °C 14.8 °C 1006.4 hPa NW 6.4 km/h 11.3 km/h 74% 0.0 mm 86 W/m2
15:25 19.3 °C 15 °C 1006.4 hPa West 4.7 km/h 11.3 km/h 76% 0.0 mm 91 W/m2
15:30 19 °C 15.1 °C 1006.4 hPa NW 7.9 km/h 9.7 km/h 78% 0.0 mm 364 W/m2
15:35 18.9 °C 15.2 °C 1006.4 hPa Calm   11.3 km/h 79% 0.0 mm 283 W/m2
15:40 18.9 °C 15.4 °C 1006.4 hPa WNW 16.3 km/h 16.1 km/h 80% 0.0 mm 388 W/m2
15:45 19.1 °C 15.4 °C 1006.4 hPa NW 6.4 km/h 6.4 km/h 79% 0.0 mm 367 W/m2
15:50 19.3 °C 15.4 °C 1006.4 hPa NW 3.2 km/h 8 km/h 78% 0.0 mm 403 W/m2
15:55 19.6 °C 14.8 °C 1006.4 hPa WSW 7.9 km/h 12.9 km/h 74% 0.0 mm 404 W/m2
16:01 19.8 °C 15.2 °C 1006.4 hPa NNW 4.7 km/h 6.4 km/h 75% 0.0 mm 424 W/m2
16:06 19.8 °C 14.6 °C 1006.4 hPa NNW 3.2 km/h 24.1 km/h 72% 0.0 mm 385 W/m2
16:11 19.6 °C 14.4 °C 1006.4 hPa WNW 6.4 km/h 17.7 km/h 72% 0.0 mm 246 W/m2
16:28 19.6 °C 14.8 °C 1006.4 hPa NW 3.2 km/h 8 km/h 74% 0.0 mm 272 W/m2
16:33 19.6 °C 14.8 °C 1006.4 hPa NNW 4.7 km/h 12.9 km/h 74% 0.0 mm 197 W/m2
16:38 19.6 °C 14.8 °C 1006.4 hPa NW 4.7 km/h 11.3 km/h 74% 0.0 mm 183 W/m2
16:43 19.6 °C 14.4 °C 1006.4 hPa WNW 3.2 km/h 14.5 km/h 72% 0.0 mm 185 W/m2
16:48 19.4 °C 14.6 °C 1006.4 hPa West 9.7 km/h 14.5 km/h 74% 0.0 mm 183 W/m2
16:53 19.4 °C 14.2 °C 1006.8 hPa WNW 11.1 km/h 14.5 km/h 72% 0.0 mm 172 W/m2
16:58 19.3 °C 14.1 °C 1006.8 hPa North 16.3 km/h 17.7 km/h 72% 0.0 mm 146 W/m2
17:03 19.3 °C 14.1 °C 1006.8 hPa WNW 6.4 km/h 8 km/h 72% 0.0 mm 183 W/m2
17:08 19.4 °C 14.2 °C 1006.8 hPa WNW 4.7 km/h 9.7 km/h 72% 0.0 mm 209 W/m2
17:13 19.4 °C 14.2 °C 1006.8 hPa West 11.1 km/h 14.5 km/h 72% 0.0 mm 260 W/m2
17:18 19.5 °C 14.3 °C 1006.8 hPa NW 3.2 km/h 9.7 km/h 72% 0.0 mm 241 W/m2
17:23 19.6 °C 14.4 °C 1006.4 hPa North 3.2 km/h 14.5 km/h 72% 0.0 mm 243 W/m2
17:39 19.8 °C 14.8 °C 1006.4 hPa Calm   3.2 km/h 73% 0.0 mm 220 W/m2
17:44 19.9 °C 14.9 °C 1006.8 hPa NW 3.2 km/h 3.2 km/h 73% 0.0 mm 127 W/m2
17:49 19.8 °C 14.6 °C 1006.8 hPa NNE 7.9 km/h 8 km/h 72% 0.0 mm 86 W/m2
17:54 19.7 °C 14.5 °C 1006.8 hPa West 1.4 km/h 9.7 km/h 72% 0.0 mm 137 W/m2
17:59 19.6 °C 14.4 °C 1006.8 hPa Calm   14.5 km/h 72% 0.0 mm 209 W/m2
18:04 19.6 °C 14.4 °C 1006.8 hPa NW 1.4 km/h 6.4 km/h 72% 0.0 mm 195 W/m2
18:09 19.6 °C 14.4 °C 1006.8 hPa NW 6.4 km/h 8 km/h 72% 0.0 mm 185 W/m2
18:14 19.7 °C 14.5 °C 1006.8 hPa NNW 4.7 km/h 12.9 km/h 72% 0.0 mm 167 W/m2
18:19 19.7 °C 14.3 °C 1006.4 hPa WSW 6.4 km/h 11.3 km/h 71% 0.0 mm 144 W/m2
18:25 19.6 °C 14.4 °C 1006.4 hPa WNW 7.9 km/h 14.5 km/h 72% 0.0 mm 139 W/m2
18:30 19.6 °C 14.4 °C 1006.4 hPa NW 1.4 km/h 6.4 km/h 72% 0.0 mm 105 W/m2
18:50 19.7 °C 14.9 °C 1006.1 hPa Calm   11.3 km/h 74% 0.0 mm 141 W/m2
18:55 19.7 °C 14.7 °C 1006.1 hPa SW 1.4 km/h 4.8 km/h 73% 0.0 mm 149 W/m2
19:00 19.7 °C 14.9 °C 1006.1 hPa SW 3.2 km/h 11.3 km/h 74% 0.0 mm 118 W/m2
19:05 19.7 °C 14.9 °C 1006.1 hPa Calm   1.6 km/h 74% 0.0 mm 111 W/m2
19:10 19.7 °C 15.1 °C 1006.1 hPa Calm   3.2 km/h 75% 0.0 mm 141 W/m2
19:15 19.7 °C 14.7 °C 1006.1 hPa NNW 3.2 km/h 6.4 km/h 73% 0.0 mm 134 W/m2
19:20 19.7 °C 15.6 °C 1006.1 hPa East 1.4 km/h 3.2 km/h 77% 0.0 mm 109 W/m2
19:25 19.6 °C 14.6 °C 1006.1 hPa Calm   4.8 km/h 73% 0.0 mm 91 W/m2
19:30 19.6 °C 14.8 °C 1006.1 hPa Calm   4.8 km/h 74% 0.0 mm 83 W/m2
19:35 19.6 °C 15.3 °C 1006.1 hPa Calm   1.6 km/h 76% 0.0 mm 97 W/m2
19:40 19.4 °C 14.9 °C 1006.1 hPa SSW 1.4 km/h 4.8 km/h 75% 0.0 mm 100 W/m2
19:45 19.3 °C 15 °C 1006.1 hPa NW 3.2 km/h 6.4 km/h 76% 0.0 mm 91 W/m2
19:50 19.3 °C 15.4 °C 1006.1 hPa Calm   1.6 km/h 78% 0.0 mm 88 W/m2
19:55 19.3 °C 15.6 °C 1006.1 hPa Calm   6.4 km/h 79% 0.0 mm 74 W/m2
20:00 19.2 °C 15.5 °C 1006.1 hPa Calm   1.6 km/h 79% 0.0 mm 95 W/m2
20:05 19 °C 15.3 °C 1006.1 hPa Calm   3.2 km/h 79% 0.0 mm 58 W/m2
20:10 18.9 °C 15.6 °C 1006.1 hPa ENE 1.4 km/h 1.6 km/h 81% 0.0 mm 47 W/m2
20:15 18.8 °C 15.5 °C 1006.1 hPa Calm   3.2 km/h 81% 0.0 mm 44 W/m2
20:20 18.6 °C 15.1 °C 1006.1 hPa ENE 1.4 km/h 1.6 km/h 80% 0.0 mm 39 W/m2
20:25 18.6 °C 15.7 °C 1006.1 hPa ENE 1.4 km/h 3.2 km/h 83% 0.0 mm 32 W/m2
20:30 18.3 °C 15.5 °C 1006.1 hPa ENE 1.4 km/h 3.2 km/h 84% 0.0 mm 23 W/m2
20:35 18.1 °C 15.4 °C 1006.1 hPa Calm   1.6 km/h 84% 0.0 mm 21 W/m2
20:40 17.9 °C 15.3 °C 1006.1 hPa Calm   3.2 km/h 85% 0.0 mm 23 W/m2
20:45 17.8 °C 15.2 °C 1006.1 hPa Calm   1.6 km/h 85% 0.0 mm 16 W/m2
20:50 17.6 °C 15 °C 1006.1 hPa ENE 1.4 km/h 3.2 km/h 85% 0.0 mm 11 W/m2
20:55 17.3 °C 14.9 °C 1006.1 hPa Calm     86% 0.0 mm 7 W/m2
21:00 17.2 °C 15 °C 1006.1 hPa Calm   3.2 km/h 87% 0.0 mm 5 W/m2
21:05 16.9 °C 14.7 °C 1006.1 hPa Calm     87% 0.0 mm 0 W/m2
21:10 16.7 °C 14.5 °C 1006.1 hPa Calm     87% 0.0 mm 0 W/m2
21:15 16.6 °C 14.6 °C 1006.1 hPa Calm     88% 0.0 mm 0 W/m2
21:20 16.4 °C 14.4 °C 1006.4 hPa Calm     88% 0.0 mm 0 W/m2
21:25 16.2 °C 14.4 °C 1006.4 hPa Calm   1.6 km/h 89% 0.0 mm 0 W/m2
21:30 16.1 °C 14.3 °C 1006.4 hPa Calm     89% 0.0 mm 0 W/m2
21:36 15.9 °C 14.1 °C 1006.4 hPa Calm   1.6 km/h 89% 0.0 mm 0 W/m2
21:41 15.8 °C 14.2 °C 1006.4 hPa Calm   1.6 km/h 90% 0.0 mm 0 W/m2
21:46 15.8 °C 14.2 °C 1006.1 hPa SE 1.4 km/h 3.2 km/h 90% 0.0 mm 0 W/m2
21:51 15.7 °C 14.1 °C 1006.4 hPa Calm     90% 0.0 mm 0 W/m2
21:56 15.7 °C 14.2 °C 1006.4 hPa Calm   3.2 km/h 91% 0.0 mm 0 W/m2
22:01 15.6 °C 14.1 °C 1006.1 hPa Calm   3.2 km/h 91% 0.0 mm 0 W/m2
22:06 15.6 °C 14.1 °C 1006.4 hPa Calm   3.2 km/h 91% 0.0 mm 0 W/m2
22:11 15.5 °C 14 °C 1006.4 hPa Calm     91% 0.0 mm 0 W/m2
22:16 15.4 °C 13.9 °C 1006.4 hPa Calm   1.6 km/h 91% 0.0 mm 0 W/m2
22:21 15.3 °C 13.8 °C 1006.4 hPa Calm     91% 0.0 mm 0 W/m2
22:26 15.3 °C 13.8 °C 1006.4 hPa Calm     91% 0.0 mm 0 W/m2
22:31 15.2 °C 13.7 °C 1006.4 hPa Calm     91% 0.0 mm 0 W/m2
22:36 15.1 °C 13.8 °C 1006.4 hPa Calm     92% 0.0 mm 0 W/m2
22:41 15.1 °C 13.8 °C 1006.4 hPa Calm     92% 0.0 mm 0 W/m2
22:46 15 °C 13.7 °C 1006.4 hPa Calm     92% 0.0 mm 0 W/m2
22:51 14.9 °C 13.6 °C 1006.1 hPa Calm     92% 0.0 mm 0 W/m2
22:56 14.9 °C 13.6 °C 1006.1 hPa Calm     92% 0.0 mm 0 W/m2
23:01 14.9 °C 13.8 °C 1006.1 hPa Calm     93% 0.0 mm 0 W/m2
23:06 14.9 °C 13.8 °C 1006.1 hPa Calm     93% 0.0 mm 0 W/m2
23:11 14.9 °C 13.8 °C 1006.1 hPa Calm     93% 0.0 mm 0 W/m2
23:16 15 °C 13.9 °C 1006.1 hPa Calm   1.6 km/h 93% 0.0 mm 0 W/m2
23:21 15.1 °C 14 °C 1006.1 hPa Calm     93% 0.0 mm 0 W/m2
23:26 15.1 °C 14 °C 1006.1 hPa Calm     93% 0.0 mm 0 W/m2
23:31 15.2 °C 14.2 °C 1006.1 hPa Calm     94% 0.0 mm 0 W/m2
23:36 15.2 °C 14.1 °C 1006.1 hPa Calm   1.6 km/h 93% 0.0 mm 0 W/m2
23:41 15.3 °C 14.2 °C 1006.1 hPa Calm     93% 0.0 mm 0 W/m2
23:59 15.5 °C 14.4 °C 1005.8 hPa Calm   3.2 km/h 93% 0.0 mm 0 W/m2
Juneau County Weather
Compliments of Weather Underground - 2 mb